This is the latest recevied weather packets stored in our database for station/object SV2RCS-13. If no packets are shown the sender has not sent any weather packets the latest 10 day(s).
| Time | Temp. | Humidity | Pressure | Rain* | Wind** | Luminosity | Snow |
|---|---|---|---|---|---|---|---|
| 1777724819 | 12.78° C | 23% | 1018.1 hPa | - | - | - | - |
| 1777724218 | 12.78° C | 24% | 1018.2 hPa | - | - | - | - |
| 1777723619 | 12.78° C | 23% | 1018.4 hPa | - | - | - | - |
| 1777723019 | 12.22° C | 23% | 1018.5 hPa | - | - | - | - |
| 1777722418 | 12.78° C | 24% | 1018.4 hPa | - | - | - | - |
| 1777721819 | 12.22° C | 21% | 1018.6 hPa | - | - | - | - |
| 1777721219 | 12.22° C | 21% | 1018.7 hPa | - | - | - | - |
| 1777720619 | 11.67° C | 21% | 1019.1 hPa | - | - | - | - |
| 1777720019 | 12.22° C | 21% | 1018.8 hPa | - | - | - | - |
| 1777719419 | 12.22° C | 21% | 1018.7 hPa | - | - | - | - |
| 1777718819 | 12.22° C | 21% | 1019 hPa | - | - | - | - |
| 1777718219 | 11.67° C | 21% | 1019.2 hPa | - | - | - | - |
| 1777717618 | 12.22° C | 21% | 1019 hPa | - | - | - | - |
| 1777717019 | 12.22° C | 23% | 1019.3 hPa | - | - | - | - |
| 1777716419 | 12.78° C | 23% | 1019 hPa | - | - | - | - |
| 1777715818 | 12.22° C | 22% | 1019.5 hPa | - | - | - | - |
| 1777715219 | 12.78° C | 23% | 1019.3 hPa | - | - | - | - |
| 1777714618 | 12.78° C | 22% | 1019.5 hPa | - | - | - | - |
| 1777714018 | 13.33° C | 25% | 1019.5 hPa | - | - | - | - |
| 1777713419 | 12.22° C | 24% | 1019.7 hPa | - | - | - | - |
| 1777712819 | 12.78° C | 22% | 1019.6 hPa | - | - | - | - |
| 1777712218 | 13.89° C | 21% | 1019.5 hPa | - | - | - | - |
| 1777711631 | 13.89° C | 21% | 1019.4 hPa | - | - | - | - |
| 1777711018 | 14.44° C | 21% | 1019.4 hPa | - | - | - | - |
| 1777710419 | 12.78° C | 21% | 1020.1 hPa | - | - | - | - |
* Rain since midnight (hover to see other rain measurements)
** Current wind speed in m/s (hover to see current wind gust speed)